createdAt,value
2018-11-13T00:00:07.381Z,98291.54
2018-11-13T00:00:39.050Z,98268.28
2018-11-13T00:01:10.640Z,98289.41
2018-11-13T00:01:42.230Z,98291.55
2018-11-13T00:02:13.820Z,98287.73
2018-11-13T00:02:45.394Z,98293.33
2018-11-13T00:03:17.000Z,98295.50
2018-11-13T00:03:48.587Z,98298.08
2018-11-13T00:04:20.175Z,98294.72
2018-11-13T00:04:51.778Z,98300.73
2018-11-13T00:05:23.379Z,98296.91
2018-11-13T00:05:54.973Z,98302.47
2018-11-13T00:06:26.560Z,98295.22
2018-11-13T00:06:58.155Z,98301.62
2018-11-13T00:07:29.740Z,98295.70
2018-11-13T00:08:01.337Z,98307.22
2018-11-13T00:08:32.956Z,98301.72
2018-11-13T00:09:04.551Z,98304.71
2018-11-13T00:09:36.136Z,98300.45
2018-11-13T00:10:07.760Z,98303.48
2018-11-13T00:10:39.362Z,98303.91
2018-11-13T00:11:10.975Z,98301.37
2018-11-13T00:11:42.578Z,98300.55
2018-11-13T00:12:14.181Z,98305.67
2018-11-13T00:12:45.768Z,98306.53
2018-11-13T00:13:17.341Z,98311.66
2018-11-13T00:13:48.928Z,98304.45
2018-11-13T00:14:20.560Z,98308.72
2018-11-13T00:14:52.138Z,98305.75
2018-11-13T00:15:23.757Z,98315.59
2018-11-13T00:15:55.353Z,98285.23
2018-11-13T00:16:26.943Z,98307.94
2018-11-13T00:16:58.536Z,98309.27
2018-11-13T00:17:30.124Z,98311.83
2018-11-13T00:18:01.727Z,98308.47
2018-11-13T00:18:33.330Z,98194.89
2018-11-13T00:19:04.917Z,98306.78
2018-11-13T00:19:36.522Z,98313.59
2018-11-13T00:20:08.151Z,98313.59
2018-11-13T00:20:39.726Z,98319.58
2018-11-13T00:21:11.334Z,98320.84
2018-11-13T00:21:42.938Z,98316.59
2018-11-13T00:22:14.548Z,98318.72
2018-11-13T00:22:46.140Z,98321.29
2018-11-13T00:23:17.751Z,98315.33
2018-11-13T00:23:49.362Z,98310.22
2018-11-13T00:24:20.956Z,98309.36
2018-11-13T00:24:52.539Z,98312.77
2018-11-13T00:25:24.170Z,98313.19
2018-11-13T00:25:55.774Z,98308.92
2018-11-13T00:26:27.364Z,98307.22
2018-11-13T00:26:58.978Z,98304.22
2018-11-13T00:27:30.646Z,98311.89
2018-11-13T00:28:02.204Z,98310.13
2018-11-13T00:28:33.789Z,98308.42
2018-11-13T00:29:05.366Z,98312.24
2018-11-13T00:29:37.086Z,98315.19
2018-11-13T00:30:08.567Z,98319.02
2018-11-13T00:30:40.211Z,98319.43
2018-11-13T00:31:11.816Z,98320.67
2018-11-13T00:31:43.426Z,98318.53
2018-11-13T00:32:15.020Z,98319.38
2018-11-13T00:32:46.605Z,98322.38
2018-11-13T00:33:18.201Z,98321.05
2018-11-13T00:33:49.788Z,98324.02
2018-11-13T00:34:21.394Z,98322.26
2018-11-13T00:34:52.980Z,98314.14
2018-11-13T00:35:24.581Z,98314.52
2018-11-13T00:35:56.183Z,98314.47
2018-11-13T00:36:27.798Z,98315.68
2018-11-13T00:36:59.388Z,98308.37
2018-11-13T00:37:30.972Z,98308.25
2018-11-13T00:38:02.560Z,98313.98
2018-11-13T00:38:34.157Z,98310.98
2018-11-13T00:39:05.762Z,98311.89
2018-11-13T00:39:37.352Z,98310.24
2018-11-13T00:40:08.948Z,98310.74
2018-11-13T00:40:40.569Z,98313.00
2018-11-13T00:41:12.156Z,98307.41
2018-11-13T00:41:43.744Z,98311.67
2018-11-13T00:42:15.341Z,98308.67
2018-11-13T00:42:46.918Z,98312.08
2018-11-13T00:43:18.526Z,98311.61
2018-11-13T00:43:50.105Z,98311.59
2018-11-13T00:44:21.708Z,98311.97
2018-11-13T00:44:53.311Z,98307.70
2018-11-13T00:45:24.952Z,98311.95
2018-11-13T00:45:56.837Z,98313.66
2018-11-13T00:46:28.206Z,98312.38
2018-11-13T00:46:59.797Z,98309.81
2018-11-13T00:47:31.385Z,98311.95
2018-11-13T00:48:02.962Z,98314.52
2018-11-13T00:48:34.552Z,98316.22
2018-11-13T00:49:06.154Z,98303.02
2018-11-13T00:49:37.757Z,98305.14
2018-11-13T00:50:09.361Z,98303.05
2018-11-13T00:50:41.007Z,98301.78
2018-11-13T00:51:12.581Z,98303.50
2018-11-13T00:51:44.167Z,98303.08
2018-11-13T00:52:15.766Z,98295.86
2018-11-13T00:52:47.365Z,98300.13
2018-11-13T00:53:18.961Z,98301.41
2018-11-13T00:53:50.552Z,98302.27
2018-11-13T00:54:22.155Z,98300.57
2018-11-13T00:54:53.783Z,98301.42
2018-11-13T00:55:25.359Z,98300.16
2018-11-13T00:55:56.988Z,98305.32
2018-11-13T00:56:28.624Z,98302.33
2018-11-13T00:57:00.223Z,98271.16
2018-11-13T00:57:31.798Z,98303.61
2018-11-13T00:58:03.371Z,98298.92
2018-11-13T00:58:34.956Z,98304.89
2018-11-13T00:59:06.544Z,98306.17
2018-11-13T00:59:38.141Z,98303.20
2018-11-13T01:00:09.749Z,98297.64
2018-11-13T01:00:41.349Z,98300.20
2018-11-13T01:01:12.940Z,98294.61
2018-11-13T01:01:44.660Z,98298.01
2018-11-13T01:02:16.257Z,98297.16
2018-11-13T01:02:47.852Z,98293.73
2018-11-13T01:03:19.436Z,98294.11
2018-11-13T01:03:51.023Z,98298.81
2018-11-13T01:04:22.622Z,98299.22
2018-11-13T01:04:54.240Z,98291.17
2018-11-13T01:05:25.915Z,98301.77
2018-11-13T01:05:57.463Z,98297.89
2018-11-13T01:06:29.185Z,98296.17
2018-11-13T01:07:00.792Z,98292.78
2018-11-13T01:07:32.384Z,98295.33
2018-11-13T01:08:04.000Z,98292.72
2018-11-13T01:08:35.597Z,98289.30
2018-11-13T01:09:07.185Z,98299.10
2018-11-13T01:09:38.772Z,98299.05
2018-11-13T01:10:10.356Z,98299.95
2018-11-13T01:10:41.944Z,98293.50
2018-11-13T01:11:13.517Z,98298.23
2018-11-13T01:11:45.236Z,98300.38
2018-11-13T01:12:16.832Z,98299.55
2018-11-13T01:12:48.437Z,98305.98
2018-11-13T01:13:20.042Z,98295.32
2018-11-13T01:13:51.628Z,98300.45
2018-11-13T01:14:23.225Z,98296.61
2018-11-13T01:14:54.868Z,98304.28
2018-11-13T01:15:26.448Z,98292.55
2018-11-13T01:15:58.036Z,98300.50
2018-11-13T01:16:29.623Z,98300.08
2018-11-13T01:17:01.253Z,98306.00
2018-11-13T01:17:33.055Z,98303.48
2018-11-13T01:18:04.478Z,98305.62
2018-11-13T01:18:36.081Z,98302.64
2018-11-13T01:19:07.667Z,98301.42
2018-11-13T01:19:39.275Z,98303.55
2018-11-13T01:20:10.857Z,98302.64
2018-11-13T01:20:42.461Z,98298.84
2018-11-13T01:21:14.051Z,98304.36
2018-11-13T01:21:45.654Z,98299.70
2018-11-13T01:22:17.361Z,98306.11
2018-11-13T01:22:48.928Z,98305.27
2018-11-13T01:23:20.516Z,98307.83
2018-11-13T01:23:52.135Z,98306.54
2018-11-13T01:24:23.714Z,98305.27
2018-11-13T01:24:55.319Z,98308.25
2018-11-13T01:25:26.922Z,98307.88
2018-11-13T01:25:58.498Z,98305.74
2018-11-13T01:26:30.084Z,98306.17
2018-11-13T01:27:01.675Z,98310.88
2018-11-13T01:27:33.344Z,98298.50
2018-11-13T01:28:04.927Z,98304.91
2018-11-13T01:28:36.517Z,98296.44
2018-11-13T01:29:08.104Z,98299.84
2018-11-13T01:29:39.695Z,98297.28
2018-11-13T01:30:11.536Z,98300.70
2018-11-13T01:30:43.157Z,98299.46
2018-11-13T01:31:14.762Z,98294.34
2018-11-13T01:31:46.348Z,98295.20
2018-11-13T01:32:17.930Z,98299.91
2018-11-13T01:32:49.544Z,98299.91
2018-11-13T01:33:21.122Z,98290.14
2018-11-13T01:33:52.724Z,98298.67
2018-11-13T01:34:24.327Z,98300.80
2018-11-13T01:34:55.917Z,98293.56
2018-11-13T01:35:27.504Z,98296.13
2018-11-13T01:35:59.103Z,98295.27
2018-11-13T01:36:30.710Z,98295.70
2018-11-13T01:37:02.296Z,98298.24
2018-11-13T01:37:33.896Z,98298.20
2018-11-13T01:38:05.526Z,98292.65
2018-11-13T01:38:37.117Z,98290.94
2018-11-13T01:39:08.706Z,98295.20
2018-11-13T01:39:40.300Z,98294.34
2018-11-13T01:40:11.895Z,98295.20
2018-11-13T01:40:43.503Z,98291.36
2018-11-13T01:41:15.092Z,98292.66
2018-11-13T01:41:46.689Z,98293.06
2018-11-13T01:42:18.279Z,98294.30
2018-11-13T01:42:49.863Z,98287.52
2018-11-13T01:43:21.479Z,98283.70
2018-11-13T01:43:53.070Z,98286.67
2018-11-13T01:44:24.674Z,98289.23
2018-11-13T01:44:56.264Z,98284.12
2018-11-13T01:45:27.838Z,98281.94
2018-11-13T01:45:59.427Z,98282.83
2018-11-13T01:46:31.026Z,98284.50
2018-11-13T01:47:02.602Z,98288.77
2018-11-13T01:47:34.191Z,98282.41
2018-11-13T01:48:05.849Z,98282.83
2018-11-13T01:48:37.415Z,98278.58
2018-11-13T01:49:09.012Z,98275.60
2018-11-13T01:49:40.877Z,98279.44
2018-11-13T01:50:12.228Z,98287.97
2018-11-13T01:50:43.811Z,98281.15
2018-11-13T01:51:15.417Z,98279.88
2018-11-13T01:51:47.123Z,98280.30
2018-11-13T01:52:18.623Z,98277.35
2018-11-13T01:52:50.204Z,98277.78
2018-11-13T01:53:21.792Z,98276.98
2018-11-13T01:53:53.418Z,98277.37
2018-11-13T01:54:25.016Z,98282.06
2018-11-13T01:54:56.644Z,98285.52
2018-11-13T01:55:28.226Z,98285.10
2018-11-13T01:55:59.811Z,98279.99
2018-11-13T01:56:31.405Z,98283.88
2018-11-13T01:57:02.999Z,98285.16
2018-11-13T01:57:34.588Z,98283.46
2018-11-13T01:58:06.199Z,98281.37
2018-11-13T01:58:37.802Z,98282.23
2018-11-13T01:59:09.416Z,98287.36
2018-11-13T01:59:40.997Z,98287.36
2018-11-13T02:00:12.598Z,98289.95
2018-11-13T02:00:44.201Z,98285.70
2018-11-13T02:01:15.801Z,98289.13
2018-11-13T02:01:47.393Z,98282.30
2018-11-13T02:02:18.984Z,98277.23
2018-11-13T02:02:50.572Z,98264.14
2018-11-13T02:03:22.178Z,98284.90
2018-11-13T02:03:53.892Z,98278.08
2018-11-13T02:04:25.482Z,98283.20
2018-11-13T02:04:57.082Z,98275.96
2018-11-13T02:05:28.671Z,98246.09
2018-11-13T02:06:00.273Z,98276.81
2018-11-13T02:06:31.850Z,98275.53
2018-11-13T02:07:03.451Z,98272.13
2018-11-13T02:07:35.053Z,98278.50
2018-11-13T02:08:06.654Z,98271.25
2018-11-13T02:08:38.244Z,98269.52
2018-11-13T02:09:09.855Z,98274.20
2018-11-13T02:09:41.442Z,98267.80
2018-11-13T02:10:13.028Z,98273.77
2018-11-13T02:10:44.634Z,98269.50
2018-11-13T02:11:16.222Z,98275.47
2018-11-13T02:11:47.830Z,98272.48
2018-11-13T02:12:19.446Z,98277.13
2018-11-13T02:12:51.049Z,98272.91
2018-11-13T02:13:22.654Z,98268.60
2018-11-13T02:13:54.244Z,98278.40
2018-11-13T02:14:25.867Z,98274.14
2018-11-13T02:14:57.442Z,98283.13
2018-11-13T02:15:29.049Z,98283.15
2018-11-13T02:16:00.654Z,98272.48
2018-11-13T02:16:32.258Z,98272.06
2018-11-13T02:17:03.845Z,98268.23
2018-11-13T02:17:35.454Z,98275.05
2018-11-13T02:18:07.043Z,98269.92
2018-11-13T02:18:38.627Z,98263.48
2018-11-13T02:19:10.216Z,98268.53
2018-11-13T02:19:41.832Z,98268.05
2018-11-13T02:20:13.416Z,98263.30
2018-11-13T02:20:45.000Z,98265.41
2018-11-13T02:21:16.588Z,98271.34
2018-11-13T02:21:48.186Z,98263.66
2018-11-13T02:22:19.790Z,98264.52
2018-11-13T02:22:51.405Z,98263.23
2018-11-13T02:23:23.010Z,98269.20
2018-11-13T02:23:54.597Z,98267.48
2018-11-13T02:24:26.212Z,98260.66
2018-11-13T02:24:57.791Z,98257.69
2018-11-13T02:25:29.397Z,98260.67
2018-11-13T02:26:01.002Z,98269.20
2018-11-13T02:26:32.603Z,98255.61
2018-11-13T02:27:04.187Z,98252.20
2018-11-13T02:27:35.771Z,98257.75
2018-11-13T02:28:07.351Z,98250.93
2018-11-13T02:28:38.950Z,98253.06
2018-11-13T02:29:10.549Z,98250.51
2018-11-13T02:29:42.178Z,98256.94
2018-11-13T02:30:13.785Z,98247.10
2018-11-13T02:30:45.380Z,98246.25
2018-11-13T02:31:16.984Z,98250.50
2018-11-13T02:31:48.579Z,98247.52
2018-11-13T02:32:20.168Z,98244.53
2018-11-13T02:32:51.756Z,98253.05
2018-11-13T02:33:23.348Z,98254.34
2018-11-13T02:33:54.932Z,98247.14
2018-11-13T02:34:26.544Z,98253.48
2018-11-13T02:34:58.137Z,98250.08
2018-11-13T02:35:29.793Z,98254.34
2018-11-13T02:36:01.356Z,98256.89
2018-11-13T02:36:33.270Z,98253.91
2018-11-13T02:37:05.139Z,98250.91
2018-11-13T02:37:36.759Z,98255.56
2018-11-13T02:38:08.360Z,98250.02
2018-11-13T02:38:39.961Z,98254.69
2018-11-13T02:39:11.541Z,98258.53
2018-11-13T02:39:43.142Z,98256.41
2018-11-13T02:40:14.752Z,98252.14
2018-11-13T02:40:46.356Z,98252.14
2018-11-13T02:41:17.952Z,98249.16
2018-11-13T02:41:49.554Z,98245.33
2018-11-13T02:42:21.150Z,98250.44
2018-11-13T02:42:52.758Z,98253.00
2018-11-13T02:43:24.334Z,98247.88
2018-11-13T02:43:55.934Z,98245.38
2018-11-13T02:44:27.562Z,98250.86
2018-11-13T02:44:59.182Z,98250.01
2018-11-13T02:45:30.782Z,98249.16
2018-11-13T02:46:02.378Z,98246.23
2018-11-13T02:46:33.968Z,98252.58
2018-11-13T02:47:05.567Z,98251.73
2018-11-13T02:47:37.152Z,98249.64
2018-11-13T02:48:08.740Z,98253.91
2018-11-13T02:48:40.343Z,98253.05
2018-11-13T02:49:11.932Z,98250.08
2018-11-13T02:49:43.659Z,98251.84
2018-11-13T02:50:15.275Z,98249.66
2018-11-13T02:50:46.858Z,98252.62
2018-11-13T02:51:18.462Z,98250.50
2018-11-13T02:51:50.067Z,98250.91
2018-11-13T02:52:21.678Z,98247.93
2018-11-13T02:52:53.280Z,98252.94
2018-11-13T02:53:24.880Z,98251.22
2018-11-13T02:53:56.470Z,98249.52
2018-11-13T02:54:28.070Z,98251.22
2018-11-13T02:54:59.698Z,98255.06
2018-11-13T02:55:31.302Z,98258.05
2018-11-13T02:56:02.888Z,98249.95
2018-11-13T02:56:34.466Z,98260.20
2018-11-13T02:57:06.074Z,98257.25
2018-11-13T02:57:37.664Z,98252.14
2018-11-13T02:58:09.262Z,98255.06
2018-11-13T02:58:40.860Z,98225.37
2018-11-13T02:59:12.459Z,98256.34
2018-11-13T02:59:44.075Z,98255.91
2018-11-13T03:00:15.677Z,98252.94
2018-11-13T03:00:47.271Z,98258.05
2018-11-13T03:01:18.856Z,98254.22
2018-11-13T03:01:50.457Z,98256.78
2018-11-13T03:02:22.044Z,98258.91
2018-11-13T03:02:53.623Z,98252.56
2018-11-13T03:03:25.208Z,98257.26
2018-11-13T03:03:56.814Z,98256.84
2018-11-13T03:04:28.395Z,98256.45
2018-11-13T03:05:00.005Z,98253.48
2018-11-13T03:05:31.596Z,98251.34
2018-11-13T03:06:03.185Z,98255.19
2018-11-13T03:06:34.767Z,98250.55
2018-11-13T03:07:06.350Z,98247.28
2018-11-13T03:07:37.951Z,98247.14
2018-11-13T03:08:09.537Z,98250.55
2018-11-13T03:08:41.135Z,98247.98
2018-11-13T03:09:12.729Z,98242.02
2018-11-13T03:09:44.343Z,98245.44
2018-11-13T03:10:15.929Z,98245.88
2018-11-13T03:10:47.516Z,98242.45
2018-11-13T03:11:19.100Z,98246.73
2018-11-13T03:11:50.693Z,98243.75
2018-11-13T03:12:22.271Z,98243.78
2018-11-13T03:12:53.855Z,98244.22
2018-11-13T03:13:25.454Z,98237.83
2018-11-13T03:13:57.147Z,98241.67
2018-11-13T03:14:28.644Z,98247.22
2018-11-13T03:15:00.278Z,98241.67
2018-11-13T03:15:31.868Z,98240.45
2018-11-13T03:16:03.456Z,98248.11
2018-11-13T03:16:35.061Z,98244.27
2018-11-13T03:17:06.650Z,98247.70
2018-11-13T03:17:38.254Z,98250.69
2018-11-13T03:18:09.834Z,98249.84
2018-11-13T03:18:41.420Z,98250.70
2018-11-13T03:19:13.026Z,98250.27
2018-11-13T03:19:44.615Z,98243.86
2018-11-13T03:20:16.217Z,98251.10
2018-11-13T03:20:47.830Z,98248.92
2018-11-13T03:21:19.434Z,98245.92
2018-11-13T03:21:51.010Z,98248.05
2018-11-13T03:22:22.605Z,98248.48
2018-11-13T03:22:54.208Z,98250.63
2018-11-13T03:23:25.814Z,98249.34
2018-11-13T03:23:57.418Z,98249.33
2018-11-13T03:24:29.022Z,98250.63
2018-11-13T03:25:00.645Z,98245.95
2018-11-13T03:25:32.316Z,98252.38
2018-11-13T03:26:03.900Z,98247.69
2018-11-13T03:26:35.514Z,98241.72
2018-11-13T03:27:07.122Z,98245.56
2018-11-13T03:27:38.725Z,98246.00
2018-11-13T03:28:10.329Z,98243.02
2018-11-13T03:28:41.906Z,98244.28
2018-11-13T03:29:13.487Z,98249.78
2018-11-13T03:29:45.075Z,98247.27
2018-11-13T03:30:16.661Z,98242.95
2018-11-13T03:30:48.255Z,98248.07
2018-11-13T03:31:20.017Z,98244.66
2018-11-13T03:31:51.491Z,98244.23
2018-11-13T03:32:23.094Z,98240.39
2018-11-13T03:32:54.718Z,98249.77
2018-11-13T03:33:26.318Z,98242.09
2018-11-13T03:33:57.907Z,98248.06
2018-11-13T03:34:30.080Z,98244.64
2018-11-13T03:35:01.736Z,98246.73
2018-11-13T03:35:33.340Z,98252.69
2018-11-13T03:36:04.914Z,98248.84
2018-11-13T03:36:36.533Z,98252.69
2018-11-13T03:37:08.121Z,98249.28
2018-11-13T03:37:39.702Z,98253.54
2018-11-13T03:38:11.300Z,98252.64
2018-11-13T03:38:42.896Z,98248.37
2018-11-13T03:39:14.487Z,98250.13
2018-11-13T03:39:46.080Z,98247.14
2018-11-13T03:40:17.692Z,98253.11
2018-11-13T03:40:49.281Z,98251.84
2018-11-13T03:41:20.878Z,98247.08
2018-11-13T03:41:52.477Z,98244.03
2018-11-13T03:42:24.082Z,98245.68
2018-11-13T03:42:55.691Z,98251.59
2018-11-13T03:43:27.280Z,98242.20
2018-11-13T03:43:58.854Z,98237.50
2018-11-13T03:44:30.458Z,98243.48
2018-11-13T03:45:02.037Z,98241.30
2018-11-13T03:45:33.652Z,98247.27
2018-11-13T03:46:05.242Z,98240.06
2018-11-13T03:46:36.846Z,98243.86
2018-11-13T03:47:08.447Z,98245.98
2018-11-13T03:47:40.026Z,98246.42
2018-11-13T03:48:11.626Z,98241.72
2018-11-13T03:48:43.212Z,98246.78
2018-11-13T03:49:14.817Z,98236.61
2018-11-13T03:49:46.422Z,98237.50
2018-11-13T03:50:18.030Z,98243.50
2018-11-13T03:50:49.637Z,98234.61
2018-11-13T03:51:21.248Z,98233.80
2018-11-13T03:51:52.856Z,98235.52
2018-11-13T03:52:24.462Z,98231.31
2018-11-13T03:52:56.061Z,98230.89
2018-11-13T03:53:27.634Z,98240.33
2018-11-13T03:53:59.224Z,98223.05
2018-11-13T03:54:30.830Z,98233.55
2018-11-13T03:55:02.427Z,98227.16
2018-11-13T03:55:34.030Z,98233.55
2018-11-13T03:56:05.637Z,98228.87
2018-11-13T03:56:37.222Z,98222.48
2018-11-13T03:57:08.820Z,98221.62
2018-11-13T03:57:40.407Z,98222.04
2018-11-13T03:58:11.992Z,98224.97
2018-11-13T03:58:43.580Z,98225.82
2018-11-13T03:59:15.169Z,98225.78
2018-11-13T03:59:46.755Z,98221.50
2018-11-13T04:00:18.361Z,98190.83
2018-11-13T04:00:49.991Z,98223.63
2018-11-13T04:01:21.580Z,98222.30
2018-11-13T04:01:53.181Z,98222.30
2018-11-13T04:02:24.778Z,98219.73
2018-11-13T04:02:56.384Z,98225.69
2018-11-13T04:03:27.986Z,98226.12
2018-11-13T04:03:59.576Z,98218.40
2018-11-13T04:04:31.182Z,98228.21
2018-11-13T04:05:02.757Z,98230.33
2018-11-13T04:05:34.376Z,98227.34
2018-11-13T04:06:05.950Z,98232.02
2018-11-13T04:06:37.554Z,98231.56
2018-11-13T04:07:09.144Z,98229.00
2018-11-13T04:07:40.721Z,98231.61
2018-11-13T04:08:12.318Z,98233.69
2018-11-13T04:08:43.907Z,98232.83
2018-11-13T04:09:15.506Z,98241.35
2018-11-13T04:09:47.109Z,98236.23
2018-11-13T04:10:18.718Z,98240.92
2018-11-13T04:10:50.373Z,98242.58
2018-11-13T04:11:21.960Z,98235.75
2018-11-13T04:11:53.544Z,98235.75
2018-11-13T04:12:25.149Z,98235.69
2018-11-13T04:12:56.739Z,98240.80
2018-11-13T04:13:28.354Z,98240.75
2018-11-13T04:13:59.953Z,98238.19
2018-11-13T04:14:31.557Z,98237.76
2018-11-13T04:15:03.195Z,98237.80
2018-11-13T04:15:34.840Z,98239.47
2018-11-13T04:16:06.431Z,98233.98
2018-11-13T04:16:38.030Z,98237.76
2018-11-13T04:17:09.629Z,98240.68
2018-11-13T04:17:41.219Z,98233.85
2018-11-13T04:18:12.807Z,98234.25
2018-11-13T04:18:44.394Z,98237.19
2018-11-13T04:19:15.997Z,98238.46
2018-11-13T04:19:47.593Z,98236.30
2018-11-13T04:20:19.184Z,98241.03
2018-11-13T04:20:50.800Z,98239.73
2018-11-13T04:21:22.417Z,98235.48
2018-11-13T04:21:54.017Z,98240.13
2018-11-13T04:22:25.631Z,98239.73
2018-11-13T04:22:57.233Z,98238.47
2018-11-13T04:23:28.830Z,98230.80
2018-11-13T04:24:00.409Z,98238.91
2018-11-13T04:24:32.008Z,98231.66
2018-11-13T04:25:03.592Z,98232.09
2018-11-13T04:25:35.198Z,98235.07
2018-11-13T04:26:06.816Z,98233.77
2018-11-13T04:26:38.394Z,98234.20
2018-11-13T04:27:09.980Z,98234.63
2018-11-13T04:27:41.564Z,98232.07
2018-11-13T04:28:13.178Z,98229.94
2018-11-13T04:28:44.773Z,98227.86
2018-11-13T04:29:16.347Z,98220.21
2018-11-13T04:29:47.949Z,98227.09
2018-11-13T04:30:19.552Z,98226.72
2018-11-13T04:30:51.194Z,98221.61
2018-11-13T04:31:22.796Z,98217.83
2018-11-13T04:31:54.382Z,98222.09
2018-11-13T04:32:25.986Z,98219.52
2018-11-13T04:32:57.582Z,98225.02
2018-11-13T04:33:29.159Z,98217.78
2018-11-13T04:34:00.735Z,98217.83
2018-11-13T04:34:32.323Z,98215.27
2018-11-13T04:35:03.908Z,98219.13
2018-11-13T04:35:35.514Z,98222.53
2018-11-13T04:36:07.132Z,98217.53
2018-11-13T04:36:38.720Z,98217.91
2018-11-13T04:37:10.304Z,98217.91
2018-11-13T04:37:41.911Z,98214.48
2018-11-13T04:38:13.514Z,98216.54
2018-11-13T04:38:45.104Z,98213.92
2018-11-13T04:39:16.691Z,98213.02
2018-11-13T04:39:48.281Z,98221.12
2018-11-13T04:40:19.878Z,98217.72
2018-11-13T04:40:51.504Z,98221.60
2018-11-13T04:41:23.101Z,98223.73
2018-11-13T04:41:54.684Z,98219.84
2018-11-13T04:42:26.262Z,98219.42
2018-11-13T04:42:57.861Z,98219.42
2018-11-13T04:43:29.448Z,98215.69
2018-11-13T04:44:01.023Z,98219.10
2018-11-13T04:44:32.608Z,98218.25
2018-11-13T04:45:04.206Z,98214.42
2018-11-13T04:45:35.795Z,98212.30
2018-11-13T04:46:07.426Z,98213.20
2018-11-13T04:46:39.018Z,98210.23
2018-11-13T04:47:10.600Z,98208.53
2018-11-13T04:47:42.185Z,98207.30
2018-11-13T04:48:13.779Z,98208.57
2018-11-13T04:48:45.375Z,98206.45
2018-11-13T04:49:16.964Z,98205.19
2018-11-13T04:49:48.567Z,98210.77
2018-11-13T04:50:20.152Z,98210.35
2018-11-13T04:50:51.754Z,98203.54
2018-11-13T04:51:23.455Z,98209.98
2018-11-13T04:51:55.014Z,98209.55
2018-11-13T04:52:26.620Z,98208.34
2018-11-13T04:52:58.216Z,98207.85
2018-11-13T04:53:29.813Z,98210.85
2018-11-13T04:54:01.406Z,98208.72
2018-11-13T04:54:32.997Z,98205.78
2018-11-13T04:55:04.574Z,98203.22
2018-11-13T04:55:36.164Z,98171.23
2018-11-13T04:56:07.798Z,98207.02
2018-11-13T04:56:39.396Z,98207.87
2018-11-13T04:57:10.990Z,98205.30
2018-11-13T04:57:42.580Z,98200.61
2018-11-13T04:58:14.168Z,98204.45
2018-11-13T04:58:45.771Z,98196.83
2018-11-13T04:59:17.357Z,98201.95
2018-11-13T04:59:48.977Z,98199.41
2018-11-13T05:00:20.588Z,98207.13
2018-11-13T05:00:52.184Z,98199.03
2018-11-13T05:01:23.791Z,98201.22
2018-11-13T05:01:55.382Z,98206.77
2018-11-13T05:02:26.985Z,98200.39
2018-11-13T05:02:58.658Z,98207.25
2018-11-13T05:03:30.218Z,98203.43
2018-11-13T05:04:01.812Z,98207.31
2018-11-13T05:04:33.419Z,98204.33
2018-11-13T05:05:05.027Z,98200.13
2018-11-13T05:05:36.626Z,98210.30
2018-11-13T05:06:08.216Z,98207.76
2018-11-13T05:06:39.808Z,98206.95
2018-11-13T05:07:11.407Z,98204.83
2018-11-13T05:07:43.005Z,98208.72
2018-11-13T05:08:14.614Z,98206.97
2018-11-13T05:08:46.204Z,98200.19
2018-11-13T05:09:17.796Z,98199.34
2018-11-13T05:09:49.366Z,98200.20
2018-11-13T05:10:21.081Z,98197.69
2018-11-13T05:10:52.617Z,98204.47
2018-11-13T05:11:24.250Z,98202.79
2018-11-13T05:11:55.842Z,98202.37
2018-11-13T05:12:27.443Z,98200.70
2018-11-13T05:12:59.028Z,98198.16
2018-11-13T05:13:30.626Z,98196.89
2018-11-13T05:14:02.224Z,98193.91
2018-11-13T05:14:33.798Z,98196.02
2018-11-13T05:15:05.372Z,98196.45
2018-11-13T05:15:36.958Z,98192.62
2018-11-13T05:16:08.566Z,98186.66
2018-11-13T05:16:40.170Z,98183.67
2018-11-13T05:17:11.768Z,98189.20
2018-11-13T05:17:43.351Z,98188.31
2018-11-13T05:18:14.954Z,98184.90
2018-11-13T05:18:46.565Z,98187.03
2018-11-13T05:19:18.148Z,98178.06
2018-11-13T05:19:49.751Z,98187.00
2018-11-13T05:20:21.329Z,98187.41
2018-11-13T05:20:52.941Z,98183.95
2018-11-13T05:21:24.561Z,98186.08
2018-11-13T05:21:56.147Z,98188.58
2018-11-13T05:22:27.732Z,98183.03
2018-11-13T05:22:59.358Z,98188.93
2018-11-13T05:23:30.943Z,98173.28
2018-11-13T05:24:02.536Z,98194.33
2018-11-13T05:24:34.140Z,98193.97
2018-11-13T05:25:05.744Z,98177.63
2018-11-13T05:25:37.336Z,98191.55
2018-11-13T05:26:08.936Z,98191.61
2018-11-13T05:26:40.510Z,98160.89
2018-11-13T05:27:12.111Z,98196.67
2018-11-13T05:27:43.719Z,98176.78
2018-11-13T05:28:15.308Z,98196.17
2018-11-13T05:28:46.911Z,98194.47
2018-11-13T05:29:18.489Z,98192.35
2018-11-13T05:29:50.080Z,98197.46
2018-11-13T05:30:21.661Z,98194.05
2018-11-13T05:30:53.258Z,98195.73
2018-11-13T05:31:24.862Z,98199.10
2018-11-13T05:31:56.495Z,98199.09
2018-11-13T05:32:28.093Z,98198.17
2018-11-13T05:32:59.682Z,98204.99
2018-11-13T05:33:31.290Z,98203.67
2018-11-13T05:34:02.880Z,98207.92
2018-11-13T05:34:34.475Z,98205.80
2018-11-13T05:35:06.063Z,98203.23
2018-11-13T05:35:37.651Z,98210.05
2018-11-13T05:36:09.255Z,98192.77
2018-11-13T05:36:40.859Z,98207.85
2018-11-13T05:37:12.465Z,98208.70
2018-11-13T05:37:44.056Z,98210.34
2018-11-13T05:38:15.658Z,98210.72
2018-11-13T05:38:47.253Z,98208.59
2018-11-13T05:39:18.861Z,98216.67
2018-11-13T05:39:50.439Z,98213.22
2018-11-13T05:40:22.033Z,98209.36
2018-11-13T05:40:53.609Z,98212.73
2018-11-13T05:41:25.254Z,98209.73
2018-11-13T05:41:56.884Z,98210.15
2018-11-13T05:42:28.509Z,98207.12
2018-11-13T05:43:00.086Z,98216.50
2018-11-13T05:43:31.666Z,98213.02
2018-11-13T05:44:03.268Z,98216.44
2018-11-13T05:44:34.859Z,98213.00
2018-11-13T05:45:06.444Z,98212.95
2018-11-13T05:45:38.032Z,98217.22
2018-11-13T05:46:09.606Z,98215.50
2018-11-13T05:46:41.220Z,98207.39
2018-11-13T05:47:12.802Z,98207.81
2018-11-13T05:47:44.407Z,98206.96
2018-11-13T05:48:15.999Z,98210.34
2018-11-13T05:48:47.583Z,98207.81
2018-11-13T05:49:19.168Z,98202.70
2018-11-13T05:49:50.774Z,98210.80
2018-11-13T05:50:22.378Z,98210.76
2018-11-13T05:50:53.963Z,98204.83
2018-11-13T05:51:25.567Z,98212.46
2018-11-13T05:51:57.184Z,98212.04
2018-11-13T05:52:28.799Z,98217.58
2018-11-13T05:53:00.387Z,98203.58
2018-11-13T05:53:31.994Z,98206.48
2018-11-13T05:54:03.595Z,98210.75
2018-11-13T05:54:35.184Z,98209.89
2018-11-13T05:55:06.762Z,98212.44
2018-11-13T05:55:38.362Z,98175.40
2018-11-13T05:56:09.951Z,98215.86
2018-11-13T05:56:41.536Z,98208.18
2018-11-13T05:57:13.158Z,98213.68
2018-11-13T05:57:44.743Z,98219.27
2018-11-13T05:58:16.345Z,98212.46
2018-11-13T05:58:47.950Z,98217.14
2018-11-13T05:59:19.522Z,98219.30
2018-11-13T05:59:51.234Z,98210.80
2018-11-13T06:00:22.790Z,98214.27
2018-11-13T06:00:54.384Z,98224.04
2018-11-13T06:01:25.962Z,98218.51
2018-11-13T06:01:57.563Z,98219.39
2018-11-13T06:02:29.171Z,98218.98
2018-11-13T06:03:00.762Z,98214.72
2018-11-13T06:03:32.365Z,98217.71
2018-11-13T06:04:04.026Z,98216.86
2018-11-13T06:04:35.896Z,98217.70
2018-11-13T06:05:07.484Z,98216.84
2018-11-13T06:05:39.075Z,98221.12
2018-11-13T06:06:10.677Z,98224.58
2018-11-13T06:06:42.268Z,98222.04
2018-11-13T06:07:13.902Z,98218.63
2018-11-13T06:07:45.511Z,98222.09
2018-11-13T06:08:17.111Z,98224.66
2018-11-13T06:08:48.756Z,98222.97
2018-11-13T06:09:20.333Z,98223.43
2018-11-13T06:09:51.933Z,98218.77
2018-11-13T06:10:23.517Z,98219.63
2018-11-13T06:10:55.108Z,98226.91